KHKA

Blytheville Municipal Airport

Blytheville, Arkansas, USA
METAR KHKA 172153Z AUTO 21009KT 10SM CLR 28/22 A2998 RMK AO2 SLP150 T02830217
Observed Flight Rules
Aug-17 @ 21:53 UTC (44 minutes ago) Visual Flight Rules
Wind Visibility Clouds
210° at 9 knots 10 miles
  • Clear skies
Temperatures Readings
Current 28°C / 82°F
Dewpoint 22°C / 72°F
Humidity 70%
Altimeter 29.98" Hg
Pressure 1015 hPa
Elevation 78
METAR KHKA 172153Z AUTO 21009KT 10SM CLR 28/22 A2998 RMK AO2 SLP150 T02830217
Observed Flight Rules
Aug-17 @ 21:53 UTC
(44 minutes ago)
VFR
Wind Visibility
210° at 9 knots 10 miles
Clouds
  • Clear skies
Temperature Dewpoint
28°C / 82°F 22°C / 72°F
Humidity Altimeter Pressure
70% 29.98" Hg 1015 hPa